Portada
METAR-TAF:

METAR-TAF

Aeropuertos :

Pago Pago, Islas Ultramarinas Menores de Estados Unidos

Aeropuerto Internacional de Pago Pago

latitud: 14-20S, longitud: 170-43W, altitud: 3 m

Observación

El informe se hizo hace 49 minutos, a las 08:50 UTC
Viento 3 kt con dirección variable
Temperatura 26°C
Humedad 89%
Presión 1006 hPa
Visibilidad: 16.1 km
Escasas nubes a una altura de 2100 ft

METAR: NSTU 200850Z VRB03KT 10SM FEW021 26/24 A2972 RMK SLP064 8/100 T02610235 52014

Hora: 22:39 (09:39 UTC)

Pronóstico

El informe se hizo hace 4 horas y 1 minutos, a las 05:38 UTC
Pronóstico válido del 20 a las 06 UTC al 21 a las 06 UTC
Viento 5 kt con dirección variable
Visibilidad: 10 km
Nubes dispersas a una altura de 2000 ft
Nubes dispersas a una altura de 4000 ft
Cielo nuboso a una altura de 15000 ft
chaparrones en las proximidades

TAF: NSTU 200538Z 2006/2106 VRB05KT P6SM VCSH SCT020 SCT040 BKN150

Observaciones y pronósticos meteorológicos de más de 4000 aeropuertos (mensajes METAR y TAF).

Los puntos amarillos y rojos representan las estaciones disponibles.

Ponga el ratón en el punto deseado para ver el nombre de la estación.

Haga clic para ver las observaciones y los pronósticos meteorológicos.

Para cambiar el mapa : haga clic en los botones verdes con una cruz de color negro para hacer un zoom, en el botón verde con un guión para alejar o en las flechas verdes para mapas adyacentes.


METAR-TAF: